Terminal Aerodrome Forecast
Issued by NWS Sterling, VA

Current Version | Previous Version | Text Only | Print | Product List | Glossary Off
Versions: 1 2 3 4 5 6 7 8 9 10 11 12 13 14 15 16 17 18 19 20 21 22 23 24 25 26 27 28 29

000
FTUS41 KLWX 170900 AAA
TAFIAD
TAF AMD
KIAD 170950Z 1710/1812 21004KT 6SM MIFG FEW070
     FM171200 24006KT P6SM FEW090
     FM171600 20011KT P6SM FEW250
     FM172000 21011G18KT P6SM FEW250
     FM180000 22006KT P6SM SCT060=

USA.gov is the U.S. government's official web portal to all federal, state and local government web resources and services.